Terminal Aerodrome Forecast
Issued by NWS Bismarck, ND

Home | Current Version | Previous Version | Text Only | Print | Product List | Glossary Off
Versions: 1 2 3 4 5 6 7 8 9 10 11 12 13 14 15 16 17 18 19 20 21 22 23

126
FTUS43 KBIS 131627 AAC
TAFBIS
TAF AMD
KBIS 131627Z 1316/1412 32017G24KT P6SM SCT015 OVC025
     FM140000 32011KT P6SM OVC030
     FM140800 32010KT 3SM -SN BR OVC015=

USA.gov is the U.S. government's official web portal to all federal, state and local government web resources and services.